createdAt,value
2023-05-01T00:00:08.027Z,4.40
2023-05-01T00:02:34.764Z,4.77
2023-05-01T00:05:02.250Z,4.53
2023-05-01T00:07:31.620Z,4.57
2023-05-01T00:09:58.588Z,4.60
2023-05-01T00:12:28.212Z,4.43
2023-05-01T00:14:55.255Z,5.03
2023-05-01T00:17:23.830Z,5.00
2023-05-01T00:19:54.884Z,4.50
2023-05-01T00:22:22.235Z,4.13
2023-05-01T00:24:50.088Z,4.93
2023-05-01T00:27:16.633Z,4.40
2023-05-01T00:29:43.458Z,5.00
2023-05-01T00:32:10.512Z,5.33
2023-05-01T00:34:37.096Z,5.27
2023-05-01T00:37:03.769Z,5.20
2023-05-01T00:39:30.644Z,4.47
2023-05-01T00:41:58.094Z,5.27
2023-05-01T00:44:24.946Z,4.53
2023-05-01T00:46:51.601Z,4.90
2023-05-01T00:49:18.180Z,5.30
2023-05-01T00:51:47.711Z,5.23
2023-05-01T00:54:14.539Z,5.53
2023-05-01T00:56:41.597Z,5.70
2023-05-01T00:59:08.960Z,5.10
2023-05-01T01:01:35.731Z,5.60
2023-05-01T01:04:02.370Z,4.93
2023-05-01T01:06:32.843Z,5.10
2023-05-01T01:09:18.446Z,5.20
2023-05-01T01:12:17.510Z,5.23
2023-05-01T01:15:13.386Z,5.37
2023-05-01T01:17:59.053Z,6.37
2023-05-01T01:20:33.438Z,6.43
2023-05-01T01:23:21.599Z,5.50
2023-05-01T01:25:57.418Z,5.87
2023-05-01T01:28:28.555Z,5.13
2023-05-01T01:31:18.195Z,6.00
2023-05-01T01:33:51.057Z,5.70
2023-05-01T01:36:34.826Z,7.00
2023-05-01T01:39:11.646Z,7.00
2023-05-01T01:41:40.190Z,6.17
2023-05-01T01:44:15.876Z,6.10
2023-05-01T01:46:43.183Z,6.67
2023-05-01T01:49:20.616Z,6.80
2023-05-01T01:51:51.015Z,6.97
2023-05-01T01:54:23.762Z,7.40
2023-05-01T01:56:51.967Z,7.33
2023-05-01T01:59:20.449Z,7.47
2023-05-01T02:01:49.739Z,6.97
2023-05-01T02:04:18.807Z,7.10
2023-05-01T02:06:47.906Z,6.87
2023-05-01T02:09:19.732Z,7.07
2023-05-01T02:11:48.096Z,7.27
2023-05-01T02:14:16.487Z,7.30
2023-05-01T02:16:44.170Z,7.17
2023-05-01T02:19:13.257Z,7.40
2023-05-01T02:21:41.186Z,8.23
2023-05-01T02:24:09.262Z,7.03
2023-05-01T02:26:43.106Z,7.63
2023-05-01T02:29:10.866Z,7.40
2023-05-01T02:31:37.894Z,8.60
2023-05-01T02:34:04.896Z,8.87
2023-05-01T02:36:33.490Z,8.40
2023-05-01T02:39:01.970Z,7.60
2023-05-01T02:41:29.360Z,8.67
2023-05-01T02:44:02.222Z,8.90
2023-05-01T02:46:32.482Z,7.80
2023-05-01T02:49:03.249Z,7.93
2023-05-01T02:51:31.992Z,7.97
2023-05-01T02:53:59.405Z,7.87
2023-05-01T02:56:30.088Z,8.27
2023-05-01T02:58:57.119Z,9.17
2023-05-01T03:01:24.076Z,9.27
2023-05-01T03:03:53.111Z,9.77
2023-05-01T03:06:20.070Z,9.90
2023-05-01T03:08:48.196Z,10.00
2023-05-01T03:11:15.695Z,9.87
2023-05-01T03:13:44.498Z,11.23
2023-05-01T03:16:11.234Z,10.80
2023-05-01T03:18:38.048Z,9.83
2023-05-01T03:21:04.706Z,10.17
2023-05-01T03:23:31.230Z,9.63
2023-05-01T03:25:58.002Z,12.17
2023-05-01T03:28:24.416Z,10.23
2023-05-01T03:30:54.975Z,11.17
2023-05-01T03:33:21.472Z,10.17
2023-05-01T03:35:48.061Z,11.10
2023-05-01T03:38:14.613Z,10.43
2023-05-01T03:40:41.396Z,11.70
2023-05-01T03:43:08.048Z,12.67
2023-05-01T03:45:34.601Z,11.50
2023-05-01T03:48:01.885Z,13.20
2023-05-01T03:50:28.752Z,11.70
2023-05-01T03:52:55.912Z,12.50
2023-05-01T03:55:22.628Z,11.27
2023-05-01T03:57:49.364Z,13.40
2023-05-01T04:00:16.107Z,12.10
2023-05-01T04:02:43.151Z,13.83
2023-05-01T04:05:11.077Z,13.93
2023-05-01T04:07:38.291Z,13.80
2023-05-01T04:10:07.305Z,14.13
2023-05-01T04:12:34.397Z,14.10
2023-05-01T04:15:01.212Z,11.80
2023-05-01T04:17:29.192Z,13.20
2023-05-01T04:19:56.155Z,12.40
2023-05-01T04:22:23.538Z,12.87
2023-05-01T04:24:50.586Z,13.63
2023-05-01T04:27:18.086Z,13.90
2023-05-01T04:29:44.831Z,12.53
2023-05-01T04:32:11.393Z,12.37
2023-05-01T04:34:38.174Z,14.03
2023-05-01T04:37:07.524Z,13.70
2023-05-01T04:39:34.350Z,12.67
2023-05-01T04:42:02.339Z,13.10
2023-05-01T04:44:29.124Z,12.63
2023-05-01T04:46:56.059Z,13.80
2023-05-01T04:49:23.096Z,12.63
2023-05-01T04:51:50.427Z,12.97
2023-05-01T04:54:17.116Z,13.30
2023-05-01T04:56:45.124Z,13.90
2023-05-01T04:59:11.856Z,12.47
2023-05-01T05:01:38.582Z,13.03
2023-05-01T05:04:06.718Z,12.80
2023-05-01T05:06:33.570Z,13.37
2023-05-01T05:09:00.240Z,13.73
2023-05-01T05:11:26.967Z,13.90
2023-05-01T05:13:54.236Z,14.10
2023-05-01T05:16:20.688Z,13.90
2023-05-01T05:18:47.161Z,14.23
2023-05-01T05:21:14.017Z,14.17
2023-05-01T05:23:40.896Z,13.93
2023-05-01T05:26:07.834Z,12.53
2023-05-01T05:28:34.262Z,13.37
2023-05-01T05:31:00.934Z,15.23
2023-05-01T05:33:29.215Z,14.33
2023-05-01T05:35:56.001Z,15.00
2023-05-01T05:38:22.403Z,15.10
2023-05-01T05:40:48.885Z,14.20
2023-05-01T05:43:15.755Z,14.30
2023-05-01T05:45:42.329Z,14.60
2023-05-01T05:48:09.194Z,14.00
2023-05-01T05:50:35.974Z,14.47
2023-05-01T05:53:02.492Z,15.27
2023-05-01T05:55:29.232Z,14.10
2023-05-01T05:57:55.640Z,15.17
2023-05-01T06:00:22.364Z,15.27
2023-05-01T06:02:49.318Z,14.30
2023-05-01T06:05:15.914Z,15.03
2023-05-01T06:07:43.602Z,15.17
2023-05-01T06:10:11.591Z,14.90
2023-05-01T06:12:39.942Z,15.03
2023-05-01T06:15:11.177Z,13.47
2023-05-01T06:17:39.384Z,14.40
2023-05-01T06:20:07.045Z,15.37
2023-05-01T06:22:33.765Z,14.27
2023-05-01T06:25:01.682Z,14.27
2023-05-01T06:27:28.120Z,13.93
2023-05-01T06:29:54.908Z,14.60
2023-05-01T06:32:21.919Z,14.03
2023-05-01T06:34:48.420Z,13.60
2023-05-01T06:37:15.191Z,13.80
2023-05-01T06:39:41.748Z,15.73
2023-05-01T06:42:08.272Z,15.00
2023-05-01T06:44:34.793Z,13.77
2023-05-01T06:47:02.097Z,15.57
2023-05-01T06:49:28.744Z,13.80
2023-05-01T06:51:55.306Z,15.30
2023-05-01T06:54:21.733Z,13.87
2023-05-01T06:56:48.428Z,13.40
2023-05-01T06:59:14.899Z,14.67
2023-05-01T07:01:41.497Z,13.20
2023-05-01T07:04:07.976Z,12.60
2023-05-01T07:06:35.629Z,11.70
2023-05-01T07:09:02.492Z,13.20
2023-05-01T07:11:29.038Z,12.80
2023-05-01T07:13:55.999Z,11.33
2023-05-01T07:16:22.709Z,10.27
2023-05-01T07:18:49.492Z,10.83
2023-05-01T07:21:16.196Z,10.43
2023-05-01T07:23:42.634Z,9.80
2023-05-01T07:26:09.164Z,9.63
2023-05-01T07:28:35.843Z,8.83
2023-05-01T07:31:04.097Z,6.77
2023-05-01T07:33:30.817Z,6.13
2023-05-01T07:35:58.323Z,6.57
2023-05-01T07:38:25.275Z,5.80
2023-05-01T07:40:55.033Z,5.90
2023-05-01T07:43:21.755Z,6.10
2023-05-01T07:45:57.277Z,5.60
2023-05-01T07:48:23.806Z,5.37
2023-05-01T07:50:50.432Z,5.97
2023-05-01T07:53:17.266Z,5.30
2023-05-01T07:55:44.070Z,5.80
2023-05-01T07:58:10.727Z,4.93
2023-05-01T08:00:38.000Z,5.10
2023-05-01T08:03:04.496Z,5.40
2023-05-01T08:05:33.053Z,5.10
2023-05-01T08:07:59.538Z,4.83
2023-05-01T08:10:27.376Z,4.70
2023-05-01T08:12:54.132Z,4.80
2023-05-01T08:15:22.527Z,4.87
2023-05-01T08:17:49.403Z,4.80
2023-05-01T08:20:16.434Z,4.90
2023-05-01T08:22:43.176Z,4.53
2023-05-01T08:25:10.482Z,5.13
2023-05-01T08:27:37.677Z,4.97
2023-05-01T08:30:04.697Z,5.00
2023-05-01T08:32:32.234Z,5.03
2023-05-01T08:34:58.750Z,5.00
2023-05-01T08:37:25.154Z,5.70
2023-05-01T08:39:52.494Z,5.13
2023-05-01T08:42:19.334Z,5.30
2023-05-01T08:44:46.998Z,5.23
2023-05-01T08:47:18.818Z,4.80
2023-05-01T08:49:46.726Z,5.10
2023-05-01T08:52:15.284Z,4.87
2023-05-01T08:54:46.964Z,4.43
2023-05-01T08:57:13.950Z,5.43
2023-05-01T08:59:41.296Z,4.90
2023-05-01T09:02:10.745Z,4.73
2023-05-01T09:04:39.502Z,4.27
2023-05-01T09:07:06.289Z,3.97
2023-05-01T09:09:33.595Z,4.17
2023-05-01T09:12:07.205Z,4.33
2023-05-01T09:14:33.950Z,4.13
2023-05-01T09:17:01.678Z,4.60
2023-05-01T09:19:28.487Z,4.63
2023-05-01T09:21:55.857Z,4.40
2023-05-01T09:24:24.568Z,4.27
2023-05-01T09:26:52.200Z,4.50
2023-05-01T09:29:37.928Z,4.47
2023-05-01T09:32:17.926Z,4.47
2023-05-01T09:34:45.907Z,4.30
2023-05-01T09:37:24.212Z,4.27
2023-05-01T09:40:10.274Z,4.17
2023-05-01T09:42:39.761Z,4.23
2023-05-01T09:45:13.839Z,4.30
2023-05-01T09:47:44.691Z,4.33
2023-05-01T09:50:32.129Z,4.10
2023-05-01T09:53:01.624Z,4.40
2023-05-01T09:55:28.174Z,3.83
2023-05-01T09:57:55.362Z,4.20
2023-05-01T10:00:22.693Z,3.67
2023-05-01T10:02:50.192Z,4.37
2023-05-01T10:05:17.861Z,3.70
2023-05-01T10:08:02.219Z,3.80
2023-05-01T10:10:28.886Z,3.60
2023-05-01T10:12:55.602Z,3.70
2023-05-01T10:15:26.702Z,3.70
2023-05-01T10:17:54.272Z,3.67
2023-05-01T10:20:21.395Z,3.50
2023-05-01T10:22:49.246Z,3.57
2023-05-01T10:25:18.137Z,3.73
2023-05-01T10:27:44.816Z,3.30
2023-05-01T10:30:12.326Z,3.33
2023-05-01T10:32:41.895Z,3.50
2023-05-01T10:35:15.193Z,3.23
2023-05-01T10:37:51.545Z,3.40
2023-05-01T10:40:40.221Z,4.00
2023-05-01T10:43:13.859Z,3.80
2023-05-01T10:45:40.366Z,2.80
2023-05-01T10:48:07.224Z,3.58
2023-05-01T10:50:34.791Z,3.73
2023-05-01T10:53:11.421Z,3.30
2023-05-01T10:55:37.949Z,3.50
2023-05-01T10:58:04.544Z,3.10
2023-05-01T11:00:32.446Z,3.30
2023-05-01T11:03:24.730Z,2.97
2023-05-01T11:06:00.795Z,3.30
2023-05-01T11:08:35.165Z,3.50
2023-05-01T11:11:20.182Z,3.60
2023-05-01T11:14:00.211Z,3.03
2023-05-01T11:16:39.670Z,3.08
2023-05-01T11:19:21.302Z,3.30
2023-05-01T11:21:48.742Z,3.47
2023-05-01T11:24:15.216Z,3.38
2023-05-01T11:26:42.781Z,3.13
2023-05-01T11:29:11.052Z,3.80
2023-05-01T11:31:39.806Z,3.60
2023-05-01T11:34:07.170Z,3.47
2023-05-01T11:36:51.297Z,3.50
2023-05-01T11:39:18.701Z,2.85
2023-05-01T11:41:45.998Z,3.67
2023-05-01T11:44:15.298Z,3.33
2023-05-01T11:46:42.144Z,3.50
2023-05-01T11:49:09.445Z,3.33
2023-05-01T11:51:36.048Z,3.50
2023-05-01T11:54:10.147Z,3.20
2023-05-01T11:56:37.753Z,3.90
2023-05-01T11:59:18.373Z,3.15
2023-05-01T12:01:47.777Z,3.17
2023-05-01T12:04:24.611Z,3.22
2023-05-01T12:06:51.568Z,2.88
2023-05-01T12:09:20.408Z,3.00
2023-05-01T12:11:52.325Z,3.30
2023-05-01T12:14:21.583Z,3.28
2023-05-01T12:16:48.604Z,3.40
2023-05-01T12:19:16.165Z,3.20
2023-05-01T12:21:42.578Z,3.85
2023-05-01T12:24:16.908Z,3.45
2023-05-01T12:26:44.629Z,3.17
2023-05-01T12:29:11.571Z,3.42
2023-05-01T12:31:48.709Z,3.20
2023-05-01T12:34:15.285Z,3.00
2023-05-01T12:36:41.804Z,3.20
2023-05-01T12:39:10.508Z,3.50
2023-05-01T12:41:44.517Z,3.33
2023-05-01T12:44:32.663Z,3.17
2023-05-01T12:47:04.908Z,3.33
2023-05-01T12:49:32.507Z,3.08
2023-05-01T12:52:03.729Z,3.53
2023-05-01T12:54:31.762Z,3.17
2023-05-01T12:57:20.496Z,3.38
2023-05-01T12:59:50.997Z,3.03
2023-05-01T13:02:18.568Z,3.20
2023-05-01T13:04:46.418Z,3.30
2023-05-01T13:07:15.121Z,3.00
2023-05-01T13:09:56.304Z,3.10
2023-05-01T13:12:24.429Z,3.50
2023-05-01T13:14:51.420Z,3.45
2023-05-01T13:17:32.009Z,3.30
2023-05-01T13:20:00.461Z,3.50
2023-05-01T13:22:38.856Z,3.45
2023-05-01T13:25:15.952Z,3.50
2023-05-01T13:27:48.547Z,3.10
2023-05-01T13:30:18.927Z,3.10
2023-05-01T13:32:46.509Z,3.20
2023-05-01T13:35:22.529Z,3.28
2023-05-01T13:37:48.907Z,3.67
2023-05-01T13:40:16.303Z,3.50
2023-05-01T13:42:43.788Z,3.20
2023-05-01T13:45:12.417Z,3.70
2023-05-01T13:47:41.284Z,3.50
2023-05-01T13:50:15.572Z,3.65
2023-05-01T13:52:44.325Z,3.38
2023-05-01T13:55:11.933Z,3.50
2023-05-01T13:57:41.473Z,3.75
2023-05-01T14:00:14.524Z,4.30
2023-05-01T14:02:47.741Z,5.70
2023-05-01T14:05:15.858Z,6.05
2023-05-01T14:07:58.544Z,6.30
2023-05-01T14:10:28.005Z,6.18
2023-05-01T14:12:59.167Z,6.18
2023-05-01T14:15:26.061Z,6.55
2023-05-01T14:17:53.352Z,6.20
2023-05-01T14:20:19.987Z,6.07
2023-05-01T14:22:53.739Z,5.95
2023-05-01T14:25:27.461Z,6.00
2023-05-01T14:27:55.372Z,6.15
2023-05-01T14:30:34.010Z,5.88
2023-05-01T14:33:06.295Z,5.68
2023-05-01T14:35:33.556Z,5.22
2023-05-01T14:38:09.541Z,5.72
2023-05-01T14:40:36.245Z,5.60
2023-05-01T14:43:04.122Z,5.80
2023-05-01T14:45:30.828Z,5.85
2023-05-01T14:47:57.943Z,6.22
2023-05-01T14:50:25.149Z,6.07
2023-05-01T14:52:56.279Z,6.05
2023-05-01T14:55:33.451Z,6.53
2023-05-01T14:58:01.231Z,6.40
2023-05-01T15:00:27.992Z,6.35
2023-05-01T15:02:57.800Z,6.17
2023-05-01T15:05:26.175Z,6.70
2023-05-01T15:07:56.954Z,6.60
2023-05-01T15:10:23.898Z,6.90
2023-05-01T15:12:51.232Z,7.00
2023-05-01T15:15:17.778Z,7.20
2023-05-01T15:17:44.298Z,6.73
2023-05-01T15:20:12.108Z,7.17
2023-05-01T15:22:40.321Z,6.83
2023-05-01T15:25:09.298Z,6.80
2023-05-01T15:27:35.986Z,6.13
2023-05-01T15:30:05.239Z,7.07
2023-05-01T15:32:32.272Z,6.83
2023-05-01T15:34:59.119Z,6.90
2023-05-01T15:37:26.039Z,6.90
2023-05-01T15:39:52.798Z,6.57
2023-05-01T15:42:20.240Z,6.53
2023-05-01T15:44:47.772Z,7.00
2023-05-01T15:47:14.891Z,6.93
2023-05-01T15:49:41.574Z,6.20
2023-05-01T15:52:08.045Z,7.07
2023-05-01T15:54:34.594Z,7.17
2023-05-01T15:57:04.357Z,7.47
2023-05-01T15:59:31.602Z,6.80
2023-05-01T16:01:58.239Z,6.57
2023-05-01T16:04:24.946Z,6.83
2023-05-01T16:06:51.938Z,6.60
2023-05-01T16:09:19.077Z,6.00
2023-05-01T16:11:46.926Z,7.20
2023-05-01T16:14:15.865Z,6.90
2023-05-01T16:16:43.327Z,7.30
2023-05-01T16:19:12.896Z,6.90
2023-05-01T16:21:39.394Z,6.77
2023-05-01T16:24:06.788Z,6.87
2023-05-01T16:26:34.824Z,6.10
2023-05-01T16:29:11.870Z,6.53
2023-05-01T16:31:41.070Z,7.37
2023-05-01T16:34:10.938Z,7.77
2023-05-01T16:36:42.415Z,7.17
2023-05-01T16:39:12.639Z,7.50
2023-05-01T16:41:45.725Z,6.90
2023-05-01T16:44:14.040Z,6.77
2023-05-01T16:46:41.988Z,6.50
2023-05-01T16:49:13.640Z,7.53
2023-05-01T16:51:44.020Z,7.17
2023-05-01T16:54:11.783Z,6.60
2023-05-01T16:56:38.689Z,6.87
2023-05-01T16:59:05.224Z,7.40
2023-05-01T17:01:31.761Z,7.00
2023-05-01T17:04:00.633Z,6.77
2023-05-01T17:06:27.679Z,7.10
2023-05-01T17:08:55.173Z,6.90
2023-05-01T17:11:22.878Z,6.80
2023-05-01T17:13:49.341Z,6.70
2023-05-01T17:16:16.119Z,6.87
2023-05-01T17:18:43.958Z,6.10
2023-05-01T17:21:14.321Z,6.63
2023-05-01T17:23:40.846Z,6.80
2023-05-01T17:26:07.649Z,6.30
2023-05-01T17:28:34.359Z,7.07
2023-05-01T17:31:01.197Z,6.10
2023-05-01T17:33:30.427Z,6.10
2023-05-01T17:36:00.770Z,6.57
2023-05-01T17:38:27.604Z,6.50
2023-05-01T17:40:55.776Z,6.53
2023-05-01T17:43:22.876Z,6.00
2023-05-01T17:45:50.315Z,6.73
2023-05-01T17:48:19.906Z,6.90
2023-05-01T17:50:46.486Z,6.50
2023-05-01T17:53:12.867Z,6.57
2023-05-01T17:55:42.935Z,6.43
2023-05-01T17:58:09.538Z,10.03
2023-05-01T18:00:36.065Z,8.67
2023-05-01T18:03:02.535Z,10.67
2023-05-01T18:05:29.424Z,10.00
2023-05-01T18:07:55.967Z,9.50
2023-05-01T18:10:22.726Z,10.80
2023-05-01T18:12:50.531Z,11.47
2023-05-01T18:15:22.018Z,10.97
2023-05-01T18:17:54.910Z,10.60
2023-05-01T18:20:22.503Z,11.30
2023-05-01T18:22:50.620Z,10.43
2023-05-01T18:29:05.338Z,12.33
2023-05-01T18:31:34.792Z,10.63
2023-05-01T18:34:02.356Z,11.27
2023-05-01T18:36:28.794Z,11.57
2023-05-01T18:38:55.996Z,11.27
2023-05-01T18:41:22.743Z,10.20
2023-05-01T18:43:57.090Z,10.10
2023-05-01T18:46:25.095Z,11.37
2023-05-01T18:48:51.684Z,11.23
2023-05-01T18:51:18.426Z,12.23
2023-05-01T18:53:44.868Z,10.83
2023-05-01T18:56:11.405Z,10.93
2023-05-01T18:58:39.874Z,11.10
2023-05-01T19:01:06.781Z,12.37
2023-05-01T19:03:33.548Z,11.73
2023-05-01T19:06:01.003Z,11.03
2023-05-01T19:08:27.433Z,11.90
2023-05-01T19:10:54.989Z,11.97
2023-05-01T19:13:21.431Z,11.20
2023-05-01T19:15:48.993Z,11.57
2023-05-01T19:18:16.164Z,10.80
2023-05-01T19:20:44.386Z,11.83
2023-05-01T19:23:12.195Z,13.13
2023-05-01T19:25:38.652Z,10.87
2023-05-01T19:28:05.081Z,13.23
2023-05-01T19:30:34.072Z,12.03
2023-05-01T19:33:00.619Z,11.77
2023-05-01T19:35:27.397Z,11.00
2023-05-01T19:37:57.864Z,11.90
2023-05-01T19:40:28.331Z,12.10
2023-05-01T19:42:55.745Z,12.10
2023-05-01T19:45:22.207Z,10.90
2023-05-01T19:47:49.456Z,11.20
2023-05-01T19:50:19.679Z,11.60
2023-05-01T19:52:47.559Z,13.07
2023-05-01T19:55:15.592Z,11.80
2023-05-01T19:57:44.856Z,11.73
2023-05-01T20:00:12.410Z,11.60
2023-05-01T20:02:39.357Z,11.67
2023-05-01T20:05:06.548Z,12.83
2023-05-01T20:07:41.972Z,12.47
2023-05-01T20:10:09.995Z,11.37
2023-05-01T20:12:37.290Z,11.67
2023-05-01T20:15:04.502Z,10.93
2023-05-01T20:17:31.236Z,10.97
2023-05-01T20:19:58.124Z,12.30
2023-05-01T20:22:25.678Z,11.63
2023-05-01T20:24:52.431Z,11.10
2023-05-01T20:27:18.954Z,10.93
2023-05-01T20:29:45.526Z,10.77
2023-05-01T20:32:12.092Z,10.90
2023-05-01T20:34:39.133Z,14.60
2023-05-01T20:37:06.902Z,13.47
2023-05-01T20:39:33.289Z,13.27
2023-05-01T20:42:01.465Z,11.97
2023-05-01T20:44:28.113Z,11.87
2023-05-01T20:46:54.550Z,11.20
2023-05-01T20:49:21.173Z,11.13
2023-05-01T20:51:48.987Z,13.30
2023-05-01T20:54:15.432Z,13.37
2023-05-01T20:56:41.979Z,12.23
2023-05-01T20:59:08.489Z,11.10
2023-05-01T21:01:35.525Z,12.97
2023-05-01T21:04:03.908Z,12.80
2023-05-01T21:06:34.499Z,11.63
2023-05-01T21:09:02.014Z,11.27
2023-05-01T21:11:28.530Z,11.90
2023-05-01T21:13:57.630Z,13.43
2023-05-01T21:16:24.251Z,13.70
2023-05-01T21:18:50.981Z,11.73
2023-05-01T21:21:17.571Z,11.97
2023-05-01T21:23:51.398Z,11.43
2023-05-01T21:26:19.998Z,11.43
2023-05-01T21:28:46.575Z,11.27
2023-05-01T21:31:19.848Z,11.20
2023-05-01T21:33:46.671Z,11.40
2023-05-01T21:36:17.018Z,11.70
2023-05-01T21:38:46.297Z,12.07
2023-05-01T21:41:15.697Z,12.93
2023-05-01T21:43:42.975Z,12.47
2023-05-01T21:46:19.544Z,11.67
2023-05-01T21:48:50.884Z,11.90
2023-05-01T21:51:19.017Z,12.20
2023-05-01T21:53:45.786Z,11.90
2023-05-01T21:56:14.397Z,12.30
2023-05-01T21:58:42.140Z,11.53
2023-05-01T22:01:09.993Z,12.20
2023-05-01T22:03:43.281Z,12.33
2023-05-01T22:06:09.919Z,12.13
2023-05-01T22:08:36.358Z,12.50
2023-05-01T22:11:03.065Z,12.27
2023-05-01T22:13:33.881Z,12.03
2023-05-01T22:16:00.929Z,11.97
2023-05-01T22:18:28.020Z,12.57
2023-05-01T22:20:55.210Z,11.27
2023-05-01T22:23:24.269Z,11.57
2023-05-01T22:25:59.847Z,11.60
2023-05-01T22:28:27.186Z,11.80
2023-05-01T22:30:54.388Z,11.77
2023-05-01T22:33:20.932Z,11.60
2023-05-01T22:35:47.361Z,12.20
2023-05-01T22:38:13.868Z,12.63
2023-05-01T22:40:41.757Z,11.63
2023-05-01T22:43:10.942Z,12.17
2023-05-01T22:45:41.542Z,12.00
2023-05-01T22:48:08.105Z,11.60
2023-05-01T22:50:37.887Z,11.40
2023-05-01T22:53:04.386Z,12.30
2023-05-01T22:55:31.139Z,12.70
2023-05-01T22:57:57.590Z,12.47
2023-05-01T23:00:24.027Z,12.00
2023-05-01T23:02:51.667Z,12.30
2023-05-01T23:05:19.312Z,12.03
2023-05-01T23:07:46.228Z,11.73
2023-05-01T23:10:13.507Z,11.90
2023-05-01T23:12:44.509Z,12.00
2023-05-01T23:15:13.972Z,12.43
2023-05-01T23:17:40.550Z,12.03
2023-05-01T23:20:09.728Z,12.37
2023-05-01T23:22:38.089Z,12.03
2023-05-01T23:25:07.363Z,11.50
2023-05-01T23:27:39.937Z,11.67
2023-05-01T23:30:10.142Z,11.80
2023-05-01T23:32:36.669Z,12.00
2023-05-01T23:35:11.540Z,12.37
2023-05-01T23:37:39.005Z,12.20
2023-05-01T23:40:07.237Z,12.17
2023-05-01T23:42:35.447Z,11.90
2023-05-01T23:45:02.075Z,12.20
2023-05-01T23:47:29.821Z,13.10
2023-05-01T23:49:56.561Z,12.13
2023-05-01T23:52:23.188Z,12.10
2023-05-01T23:54:49.873Z,12.43
2023-05-01T23:57:16.391Z,12.30
2023-05-01T23:59:44.153Z,12.27
